createdAt,value
2022-10-05T00:00:00.590Z,95.85
2022-10-05T00:02:32.408Z,95.79
2022-10-05T00:05:26.416Z,95.76
2022-10-05T00:08:04.349Z,95.82
2022-10-05T00:10:34.905Z,95.93
2022-10-05T00:13:13.170Z,95.77
2022-10-05T00:15:50.922Z,95.99
2022-10-05T00:18:44.258Z,95.73
2022-10-05T00:21:27.969Z,95.73
2022-10-05T00:24:26.516Z,95.68
2022-10-05T00:27:18.849Z,95.69
2022-10-05T00:29:58.791Z,95.56
2022-10-05T00:32:44.722Z,95.68
2022-10-05T00:35:40.125Z,95.49
2022-10-05T00:38:14.127Z,95.44
2022-10-05T00:41:02.589Z,95.51
2022-10-05T00:44:02.681Z,95.56
2022-10-05T00:47:19.543Z,95.51
2022-10-05T00:50:09.185Z,95.40
2022-10-05T00:53:09.894Z,95.51
2022-10-05T00:56:05.458Z,95.16
2022-10-05T00:58:55.609Z,95.16
2022-10-05T01:01:48.380Z,95.40
2022-10-05T01:04:34.364Z,95.26
2022-10-05T01:07:29.648Z,95.21
2022-10-05T01:10:22.393Z,95.12
2022-10-05T01:13:20.992Z,95.38
2022-10-05T01:16:05.979Z,95.34
2022-10-05T01:19:10.264Z,95.50
2022-10-05T01:21:50.647Z,95.50
2022-10-05T01:24:36.223Z,95.37
2022-10-05T01:27:42.278Z,95.34
2022-10-05T01:30:27.785Z,95.27
2022-10-05T01:33:31.581Z,95.31
2022-10-05T01:36:05.728Z,95.31
2022-10-05T01:38:48.294Z,95.40
2022-10-05T01:41:31.981Z,95.50
2022-10-05T01:44:14.637Z,95.35
2022-10-05T01:47:06.948Z,95.20
2022-10-05T01:49:55.963Z,95.24
2022-10-05T01:53:06.919Z,95.14
2022-10-05T01:55:55.977Z,95.32
2022-10-05T01:58:47.104Z,95.54
2022-10-05T02:01:32.473Z,95.67
2022-10-05T02:04:59.715Z,95.50
2022-10-05T02:07:23.109Z,95.36
2022-10-05T02:10:11.966Z,95.52
2022-10-05T02:12:40.840Z,95.42
2022-10-05T02:15:33.656Z,95.25
2022-10-05T02:18:14.040Z,95.02
2022-10-05T02:21:02.202Z,94.99
2022-10-05T02:23:39.231Z,95.17
2022-10-05T02:26:17.469Z,95.19
2022-10-05T02:29:03.471Z,95.32
2022-10-05T02:34:40.838Z,95.68
2022-10-05T02:37:36.109Z,96.25
2022-10-05T02:40:28.753Z,96.58
2022-10-05T02:43:01.869Z,96.80
2022-10-05T02:45:52.654Z,96.60
2022-10-05T02:48:48.314Z,96.84
2022-10-05T02:51:26.567Z,96.90
2022-10-05T02:54:12.672Z,96.95
2022-10-05T02:57:17.656Z,97.56
2022-10-05T02:59:52.138Z,97.07
2022-10-05T03:02:52.548Z,97.07
2022-10-05T03:05:43.331Z,96.91
2022-10-05T03:08:37.321Z,97.23
2022-10-05T03:11:38.866Z,97.06
2022-10-05T03:14:23.334Z,97.07
2022-10-05T03:17:15.369Z,96.98
2022-10-05T03:20:37.609Z,96.93
2022-10-05T03:23:17.356Z,96.74
2022-10-05T03:26:08.054Z,97.02
2022-10-05T03:28:59.151Z,97.31
2022-10-05T03:31:48.624Z,97.20
2022-10-05T03:34:46.723Z,97.25
2022-10-05T03:37:22.348Z,97.24
2022-10-05T03:40:21.139Z,97.03
2022-10-05T03:43:00.242Z,97.09
2022-10-05T03:45:54.087Z,97.50
2022-10-05T03:48:57.544Z,97.53
2022-10-05T03:51:51.528Z,97.69
2022-10-05T03:54:45.814Z,97.98
2022-10-05T03:57:24.159Z,97.77
2022-10-05T04:00:14.564Z,97.93
2022-10-05T04:03:17.462Z,98.17
2022-10-05T04:05:53.045Z,98.07
2022-10-05T04:08:39.153Z,98.27
2022-10-05T04:11:30.869Z,98.27
2022-10-05T04:14:33.665Z,98.37
2022-10-05T04:17:18.545Z,98.33
2022-10-05T04:20:07.393Z,98.34
2022-10-05T04:23:06.878Z,98.69
2022-10-05T04:25:51.557Z,98.59
2022-10-05T04:28:41.275Z,98.70
2022-10-05T04:31:23.297Z,98.72
2022-10-05T04:34:36.646Z,98.80
2022-10-05T04:37:46.652Z,98.58
2022-10-05T04:40:33.310Z,98.61
2022-10-05T04:43:08.250Z,98.61
2022-10-05T04:46:21.097Z,98.72
2022-10-05T04:49:09.662Z,98.78
2022-10-05T04:51:51.014Z,98.77
2022-10-05T04:54:52.862Z,98.48
2022-10-05T04:57:40.198Z,98.42
2022-10-05T05:00:54.459Z,98.38
2022-10-05T05:03:45.988Z,98.76
2022-10-05T05:07:04.514Z,98.73
2022-10-05T05:10:10.236Z,99.19
2022-10-05T05:12:44.289Z,99.10
2022-10-05T05:15:28.160Z,99.41
2022-10-05T05:18:33.981Z,99.56
2022-10-05T05:21:44.543Z,99.54
2022-10-05T05:24:58.838Z,99.70
2022-10-05T05:27:48.472Z,99.85
2022-10-05T05:30:35.836Z,99.51
2022-10-05T05:33:38.188Z,99.33
2022-10-05T05:36:55.560Z,99.58
2022-10-05T05:40:01.487Z,99.75
2022-10-05T05:42:45.243Z,99.65
2022-10-05T05:45:35.365Z,99.55
2022-10-05T05:48:27.739Z,99.69
2022-10-05T05:51:12.095Z,99.92
2022-10-05T05:53:55.903Z,100.00
2022-10-05T05:57:08.262Z,99.98
2022-10-05T06:00:16.992Z,99.90
2022-10-05T06:02:56.213Z,99.95
2022-10-05T06:05:39.483Z,99.85
2022-10-05T06:08:32.091Z,99.59
2022-10-05T06:11:31.037Z,99.35
2022-10-05T06:14:22.008Z,99.25
2022-10-05T06:17:06.611Z,98.89
2022-10-05T06:19:46.836Z,98.86
2022-10-05T06:22:36.093Z,98.51
2022-10-05T06:25:42.472Z,98.42
2022-10-05T06:28:16.318Z,98.00
2022-10-05T06:31:08.569Z,97.83
2022-10-05T06:34:00.432Z,97.47
2022-10-05T06:37:12.196Z,97.14
2022-10-05T06:40:16.388Z,97.02
2022-10-05T06:42:54.630Z,96.89
2022-10-05T06:46:19.049Z,96.44
2022-10-05T06:49:03.353Z,95.92
2022-10-05T06:52:06.483Z,96.12
2022-10-05T06:55:13.933Z,95.83
2022-10-05T06:58:05.448Z,95.31
2022-10-05T07:00:49.223Z,94.80
2022-10-05T07:03:51.862Z,94.58
2022-10-05T07:06:26.875Z,94.34
2022-10-05T07:09:23.745Z,93.99
2022-10-05T07:12:05.130Z,93.71
2022-10-05T07:14:51.663Z,93.40
2022-10-05T07:17:29.606Z,92.83
2022-10-05T07:20:39.676Z,92.50
2022-10-05T07:23:29.174Z,92.06
2022-10-05T07:26:17.536Z,91.98
2022-10-05T07:29:30.735Z,92.03
2022-10-05T07:32:14.899Z,91.32
2022-10-05T07:34:54.064Z,91.66
2022-10-05T07:37:59.380Z,91.71
2022-10-05T07:41:17.135Z,91.15
2022-10-05T07:44:50.217Z,90.19
2022-10-05T07:47:45.252Z,88.93
2022-10-05T07:50:54.941Z,89.23
2022-10-05T07:53:53.350Z,87.72
2022-10-05T07:56:43.612Z,87.00
2022-10-05T07:59:45.587Z,86.91
2022-10-05T08:02:44.584Z,87.57
2022-10-05T08:05:30.706Z,86.18
2022-10-05T08:08:26.326Z,86.74
2022-10-05T08:11:48.426Z,86.13
2022-10-05T08:15:01.187Z,85.01
2022-10-05T08:17:50.892Z,86.07
2022-10-05T08:20:33.794Z,86.32
2022-10-05T08:23:25.987Z,83.74
2022-10-05T08:26:00.459Z,83.58
2022-10-05T08:28:54.388Z,82.92
2022-10-05T08:31:46.979Z,83.15
2022-10-05T08:34:23.023Z,82.14
2022-10-05T08:37:08.460Z,81.78
2022-10-05T08:39:42.289Z,81.29
2022-10-05T08:42:28.558Z,79.75
2022-10-05T08:45:18.230Z,81.29
2022-10-05T08:48:10.765Z,80.61
2022-10-05T08:51:16.966Z,80.06
2022-10-05T08:54:22.005Z,80.66
2022-10-05T08:57:34.294Z,78.67
2022-10-05T09:00:17.833Z,78.44
2022-10-05T09:03:14.906Z,78.98
2022-10-05T09:06:07.017Z,77.75
2022-10-05T09:09:12.863Z,78.03
2022-10-05T09:12:21.300Z,78.68
2022-10-05T09:15:28.082Z,77.58
2022-10-05T09:18:26.333Z,78.35
2022-10-05T09:21:31.075Z,78.63
2022-10-05T09:24:24.436Z,77.38
2022-10-05T09:27:17.999Z,78.16
2022-10-05T09:30:03.937Z,76.54
2022-10-05T09:33:00.555Z,76.94
2022-10-05T09:35:59.219Z,76.33
2022-10-05T09:39:02.346Z,76.81
2022-10-05T09:42:23.420Z,75.83
2022-10-05T09:44:52.032Z,75.92
2022-10-05T09:48:03.818Z,75.93
2022-10-05T09:50:51.228Z,74.89
2022-10-05T09:53:52.587Z,75.86
2022-10-05T09:56:35.704Z,74.86
2022-10-05T09:59:13.514Z,75.11
2022-10-05T10:02:30.821Z,74.88
2022-10-05T10:06:05.043Z,74.49
2022-10-05T10:08:53.030Z,73.44
2022-10-05T10:11:48.929Z,73.21
2022-10-05T10:14:55.786Z,72.43
2022-10-05T10:17:53.361Z,71.95
2022-10-05T10:21:14.591Z,71.88
2022-10-05T10:23:58.727Z,72.15
2022-10-05T10:26:44.508Z,71.20
2022-10-05T10:32:26.841Z,67.81
2022-10-05T10:35:19.552Z,66.84
2022-10-05T10:37:52.665Z,66.50
2022-10-05T10:41:09.683Z,66.92
2022-10-05T10:44:20.870Z,67.23
2022-10-05T10:47:04.196Z,67.27
2022-10-05T10:49:44.040Z,68.72
2022-10-05T10:52:54.935Z,68.98
2022-10-05T10:55:47.131Z,66.90
2022-10-05T10:58:43.806Z,65.24
2022-10-05T11:01:44.606Z,63.99
2022-10-05T11:04:33.795Z,65.23
2022-10-05T11:07:12.722Z,65.13
2022-10-05T11:10:25.746Z,63.64
2022-10-05T11:13:11.222Z,62.84
2022-10-05T11:16:03.642Z,63.77
2022-10-05T11:19:09.913Z,62.67
2022-10-05T11:21:50.918Z,62.74
2022-10-05T11:24:50.522Z,62.76
2022-10-05T11:27:55.804Z,64.94
2022-10-05T11:30:53.067Z,62.93
2022-10-05T11:33:42.575Z,63.98
2022-10-05T11:36:54.398Z,62.31
2022-10-05T11:39:54.511Z,60.46
2022-10-05T11:42:44.292Z,61.08
2022-10-05T11:45:36.379Z,60.26
2022-10-05T11:48:22.460Z,58.35
2022-10-05T11:51:28.552Z,58.43
2022-10-05T11:55:11.372Z,59.55
2022-10-05T11:57:53.687Z,59.83
2022-10-05T12:00:43.191Z,60.83
2022-10-05T12:03:35.026Z,60.17
2022-10-05T12:06:45.515Z,61.21
2022-10-05T12:09:24.629Z,62.47
2022-10-05T12:12:25.403Z,61.47
2022-10-05T12:15:17.590Z,61.32
2022-10-05T12:18:01.087Z,62.24
2022-10-05T12:20:55.005Z,61.18
2022-10-05T12:23:39.886Z,63.64
2022-10-05T12:27:15.550Z,63.25
2022-10-05T12:30:26.268Z,62.42
2022-10-05T12:33:15.503Z,63.97
2022-10-05T12:36:20.483Z,64.56
2022-10-05T12:39:27.371Z,63.83
2022-10-05T12:42:16.818Z,62.69
2022-10-05T12:45:09.506Z,63.99
2022-10-05T12:48:06.555Z,64.29
2022-10-05T12:50:45.101Z,65.12
2022-10-05T12:53:27.108Z,65.60
2022-10-05T12:56:40.789Z,65.39
2022-10-05T12:59:30.939Z,65.63
2022-10-05T13:02:32.455Z,66.02
2022-10-05T13:05:22.027Z,65.94
2022-10-05T13:08:21.325Z,64.63
2022-10-05T13:11:04.462Z,63.59
2022-10-05T13:13:58.002Z,62.55
2022-10-05T13:16:59.787Z,62.58
2022-10-05T13:20:10.063Z,62.53
2022-10-05T13:23:18.437Z,62.78
2022-10-05T13:26:01.389Z,63.42
2022-10-05T13:28:59.404Z,64.33
2022-10-05T13:31:51.314Z,64.14
2022-10-05T13:34:54.038Z,64.36
2022-10-05T13:37:48.031Z,64.63
2022-10-05T13:41:02.806Z,64.65
2022-10-05T13:44:10.387Z,65.50
2022-10-05T13:46:58.854Z,65.19
2022-10-05T13:50:14.501Z,65.99
2022-10-05T13:53:27.047Z,66.17
2022-10-05T13:56:40.682Z,67.36
2022-10-05T13:59:27.794Z,67.12
2022-10-05T14:02:16.175Z,66.99
2022-10-05T14:05:29.690Z,67.92
2022-10-05T14:07:58.498Z,68.10
2022-10-05T14:10:45.132Z,68.84
2022-10-05T14:13:42.137Z,68.83
2022-10-05T14:16:25.564Z,69.13
2022-10-05T14:19:04.390Z,69.53
2022-10-05T14:21:50.666Z,69.90
2022-10-05T14:24:50.385Z,70.16
2022-10-05T14:27:30.854Z,70.61
2022-10-05T14:30:25.438Z,70.90
2022-10-05T14:33:16.348Z,71.36
2022-10-05T14:35:57.260Z,71.64
2022-10-05T14:38:57.750Z,71.77
2022-10-05T14:41:47.346Z,72.11
2022-10-05T14:47:50.331Z,72.53
2022-10-05T14:50:43.551Z,72.70
2022-10-05T14:53:37.983Z,72.64
2022-10-05T14:56:53.157Z,72.89
2022-10-05T14:59:37.095Z,73.28
2022-10-05T15:02:30.598Z,73.52
2022-10-05T15:05:24.863Z,73.91
2022-10-05T15:08:24.366Z,74.25
2022-10-05T15:11:27.558Z,74.58
2022-10-05T15:13:56.721Z,74.91
2022-10-05T15:16:42.284Z,75.14
2022-10-05T15:19:24.635Z,75.34
2022-10-05T15:22:33.470Z,75.74
2022-10-05T15:25:22.833Z,76.17
2022-10-05T15:28:15.928Z,76.28
2022-10-05T15:31:04.806Z,76.51
2022-10-05T15:33:53.616Z,77.02
2022-10-05T15:36:42.976Z,77.18
2022-10-05T15:39:38.697Z,77.41
2022-10-05T15:42:25.987Z,77.62
2022-10-05T15:45:20.033Z,77.75
2022-10-05T15:48:07.939Z,77.84
2022-10-05T15:51:15.177Z,78.05
2022-10-05T15:54:33.397Z,78.39
2022-10-05T15:57:42.913Z,78.69
2022-10-05T16:00:24.188Z,78.88
2022-10-05T16:03:23.427Z,78.88
2022-10-05T16:06:20.642Z,79.04
2022-10-05T16:09:38.183Z,79.29
2022-10-05T16:12:18.440Z,79.32
2022-10-05T16:15:34.952Z,79.26
2022-10-05T16:18:48.087Z,79.52
2022-10-05T16:21:46.774Z,79.68
2022-10-05T16:24:48.922Z,79.62
2022-10-05T16:28:03.004Z,79.85
2022-10-05T16:31:18.776Z,79.89
2022-10-05T16:37:12.726Z,80.42
2022-10-05T16:40:36.017Z,80.34
2022-10-05T16:43:55.847Z,80.40
2022-10-05T16:46:59.999Z,80.64
2022-10-05T16:50:08.012Z,80.73
2022-10-05T16:53:19.028Z,80.90
2022-10-05T16:56:21.484Z,81.15
2022-10-05T16:59:17.981Z,81.19
2022-10-05T17:02:02.369Z,81.37
2022-10-05T17:05:01.447Z,81.36
2022-10-05T17:08:26.878Z,81.51
2022-10-05T17:11:02.250Z,81.57
2022-10-05T17:14:07.430Z,81.63
2022-10-05T17:17:02.289Z,81.87
2022-10-05T17:20:20.548Z,81.73
2022-10-05T17:23:24.943Z,81.89
2022-10-05T17:26:18.585Z,81.98
2022-10-05T17:29:27.808Z,82.09
2022-10-05T17:32:20.920Z,81.91
2022-10-05T17:35:37.655Z,81.99
2022-10-05T17:38:54.746Z,82.12
2022-10-05T17:41:50.146Z,82.24
2022-10-05T17:45:04.351Z,81.92
2022-10-05T17:48:09.223Z,82.17
2022-10-05T17:51:32.291Z,82.21
2022-10-05T17:55:09.025Z,82.26
2022-10-05T17:58:23.268Z,82.30
2022-10-05T18:01:42.099Z,82.20
2022-10-05T18:04:30.283Z,82.18
2022-10-05T18:07:25.234Z,81.97
2022-10-05T18:10:36.655Z,82.08
2022-10-05T18:13:50.318Z,81.85
2022-10-05T18:16:56.783Z,82.16
2022-10-05T18:19:38.738Z,81.96
2022-10-05T18:22:38.898Z,82.17
2022-10-05T18:26:02.522Z,82.28
2022-10-05T18:28:58.658Z,82.07
2022-10-05T18:32:10.182Z,81.94
2022-10-05T18:35:13.499Z,81.95
2022-10-05T18:38:04.330Z,82.00
2022-10-05T18:41:29.047Z,81.86
2022-10-05T18:44:39.408Z,81.56
2022-10-05T18:48:23.240Z,81.74
2022-10-05T18:51:29.926Z,81.49
2022-10-05T18:54:42.090Z,81.35
2022-10-05T18:58:06.080Z,81.13
2022-10-05T19:01:37.653Z,81.07
2022-10-05T19:04:26.948Z,80.79
2022-10-05T19:07:41.545Z,81.00
2022-10-05T19:10:44.965Z,80.79
2022-10-05T19:13:42.098Z,80.85
2022-10-05T19:16:42.086Z,80.91
2022-10-05T19:19:39.939Z,80.88
2022-10-05T19:22:40.800Z,80.89
2022-10-05T19:26:02.799Z,81.12
2022-10-05T19:29:05.518Z,81.27
2022-10-05T19:31:55.961Z,81.51
2022-10-05T19:34:43.068Z,81.57
2022-10-05T19:37:44.467Z,82.04
2022-10-05T19:40:39.393Z,82.00
2022-10-05T19:43:44.216Z,82.08
2022-10-05T19:46:37.432Z,82.37
2022-10-05T19:49:37.658Z,82.44
2022-10-05T19:52:44.226Z,82.88
2022-10-05T19:55:26.594Z,82.50
2022-10-05T19:58:27.507Z,82.59
2022-10-05T20:01:42.512Z,82.88
2022-10-05T20:04:38.919Z,82.85
2022-10-05T20:07:39.782Z,83.17
2022-10-05T20:10:32.998Z,83.21
2022-10-05T20:13:16.851Z,83.41
2022-10-05T20:16:55.471Z,83.37
2022-10-05T20:20:05.344Z,83.66
2022-10-05T20:22:46.019Z,83.69
2022-10-05T20:28:52.176Z,84.06
2022-10-05T20:31:37.830Z,83.93
2022-10-05T20:34:16.996Z,83.87
2022-10-05T20:36:59.598Z,83.99
2022-10-05T20:39:31.093Z,84.22
2022-10-05T20:42:10.787Z,84.21
2022-10-05T20:44:56.694Z,84.31
2022-10-05T20:47:35.517Z,84.92
2022-10-05T20:50:27.466Z,84.89
2022-10-05T20:53:15.895Z,84.84
2022-10-05T20:55:48.184Z,85.19
2022-10-05T20:58:44.315Z,84.97
2022-10-05T21:01:48.097Z,85.38
2022-10-05T21:04:41.399Z,85.30
2022-10-05T21:07:16.046Z,85.59
2022-10-05T21:10:03.008Z,85.57
2022-10-05T21:12:45.007Z,85.58
2022-10-05T21:15:33.852Z,85.65
2022-10-05T21:18:21.577Z,85.68
2022-10-05T21:21:17.011Z,85.61
2022-10-05T21:24:24.385Z,85.51
2022-10-05T21:27:13.421Z,85.64
2022-10-05T21:30:19.453Z,85.70
2022-10-05T21:33:20.666Z,85.57
2022-10-05T21:35:56.440Z,85.88
2022-10-05T21:38:34.621Z,85.94
2022-10-05T21:41:31.072Z,86.02
2022-10-05T21:44:03.933Z,86.05
2022-10-05T21:46:52.093Z,86.25
2022-10-05T21:49:42.693Z,86.20
2022-10-05T21:52:20.482Z,86.20
2022-10-05T21:55:19.881Z,86.24
2022-10-05T21:58:00.010Z,86.24
2022-10-05T22:00:40.898Z,86.37
2022-10-05T22:03:24.684Z,86.37
2022-10-05T22:09:04.626Z,86.92
2022-10-05T22:11:51.337Z,87.24
2022-10-05T22:14:46.528Z,87.90
2022-10-05T22:17:31.524Z,87.65
2022-10-05T22:20:53.939Z,87.91
2022-10-05T22:23:36.564Z,88.01
2022-10-05T22:26:30.645Z,88.45
2022-10-05T22:29:16.010Z,88.38
2022-10-05T22:31:48.388Z,88.50
2022-10-05T22:34:21.015Z,88.50
2022-10-05T22:37:05.515Z,88.82
2022-10-05T22:40:15.034Z,89.23
2022-10-05T22:42:56.099Z,89.30
2022-10-05T22:45:32.846Z,89.63
2022-10-05T22:48:08.280Z,89.62
2022-10-05T22:50:37.375Z,89.82
2022-10-05T22:53:29.885Z,89.82
2022-10-05T22:56:11.468Z,90.11
2022-10-05T22:58:52.654Z,90.34
2022-10-05T23:01:47.003Z,90.46
2022-10-05T23:04:32.824Z,90.45
2022-10-05T23:07:01.024Z,90.65
2022-10-05T23:09:54.183Z,90.48
2022-10-05T23:12:38.426Z,90.65
2022-10-05T23:15:34.125Z,90.98
2022-10-05T23:18:29.496Z,91.21
2022-10-05T23:21:02.234Z,91.31
2022-10-05T23:23:49.205Z,91.21
2022-10-05T23:26:52.939Z,91.13
2022-10-05T23:29:42.038Z,91.02
2022-10-05T23:32:18.787Z,91.11
2022-10-05T23:35:10.069Z,91.31
2022-10-05T23:37:46.939Z,91.10
2022-10-05T23:40:40.385Z,91.01
2022-10-05T23:43:25.414Z,91.15
2022-10-05T23:46:09.769Z,91.59
2022-10-05T23:48:40.114Z,91.48
2022-10-05T23:51:16.048Z,91.43
2022-10-05T23:54:06.439Z,91.17
2022-10-05T23:56:42.459Z,91.51
2022-10-05T23:59:21.744Z,91.68
